• Join FlightAware (Why Join?)
  • Login
  • US Flag GB Flag 
21:55 EDT


 

Airport Tracker/Info


-or-


 

Live Flight TrackerFlight Track Log ✈ USC105 ✈ 08-Apr-2013 ✈ KYIP - KDPA

Flight Track Log - Related Links

Times and Time Zones

All times are in EDT time to prevent confusion due to time zone crossing. See the USC105 flight status page for this flight to view local times or setup timezone preferences in your user account.

Time Position Orientation Groundspeed Altitude Reporting Facility
EDT Latitude Longitude Course Direction KTS MPH feet Rate Location/Type
00:15 42.2425 -83.5611 281° West 106 122 1,600  Level FAA TRACON SMA TRACON (SMA)
00:15 42.2411 -83.5772 263° West 110 127 1,900 900 Climbing FAA TRACON SMA TRACON (SMA)
00:16 42.2414 -83.5897 272° West 108 124 2,200 720 Climbing FAA TRACON SMA TRACON (SMA)
00:16 42.2414 -83.6019 270° West 108 124 2,400 600 Climbing FAA TRACON SMA TRACON (SMA)
00:16 42.2408 -83.6189 267° West 114 131 2,600 420 Climbing FAA TRACON SMA TRACON (SMA)
00:17 42.2414 -83.6328 273° West 119 137 2,700 300 Climbing FAA TRACON SMA TRACON (SMA)
00:17 42.2408 -83.6503 268° West 121 139 2,800 300 Climbing FAA TRACON SMA TRACON (SMA)
00:17 42.2394 -83.6656 263° West 130 150 2,900 420 Climbing FAA TRACON SMA TRACON (SMA)
00:18 42.2386 -83.6803 266° West 128 147 3,100 420 Climbing FAA TRACON SMA TRACON (SMA)
00:18 42.2383 -83.6989 269° West 128 147 3,200 420 Climbing FAA TRACON SMA TRACON (SMA)
00:18 42.2386 -83.7133 271° West 127 146 3,400 420 Climbing FAA TRACON SMA TRACON (SMA)
00:19 42.2378 -83.7281 266° West 126 145 3,500 420 Climbing FAA TRACON SMA TRACON (SMA)
00:19 42.2364 -83.7458 264° West 125 144 3,700 420 Climbing FAA TRACON SMA TRACON (SMA)
00:19 42.2353 -83.7603 264° West 127 146 3,800 360 Climbing FAA TRACON SMA TRACON (SMA)
00:20 42.2344 -83.7750 266° West 126 145 4,000 540 Climbing FAA TRACON SMA TRACON (SMA)
00:20 42.2344 -83.7933 270° West 126 145 4,200 480 Climbing FAA TRACON SMA TRACON (SMA)
00:20 42.2344 -83.8078 270° West 125 144 4,300 300 Climbing FAA TRACON SMA TRACON (SMA)
00:21 42.2344 -83.8222 270° West 125 144 4,400 300 Climbing FAA TRACON SMA TRACON (SMA)
00:21 42.2322 -83.8403 261° West 123 142 4,500 420 Climbing FAA TRACON SMA TRACON (SMA)
00:21 42.2306 -83.8550 261° West 126 145 4,700 420 Climbing FAA TRACON SMA TRACON (SMA)
00:22 42.2289 -83.8692 261° West 126 145 4,800 300 Climbing FAA TRACON SMA TRACON (SMA)
00:22 42.2272 -83.8831 261° West 123 142 4,900 420 Climbing FAA TRACON SMA TRACON (SMA)
00:22 42.2269 -83.9022 269° West 130 150 5,100 420 Climbing FAA TRACON SMA TRACON (SMA)
00:23 42.2267 -83.9175 269° West 133 153 5,200 300 Climbing FAA TRACON SMA TRACON (SMA)
00:23 42.2267 -83.9375 270° West 136 157 5,300 420 Climbing FAA TRACON SMA TRACON (SMA)
00:23 42.2264 -83.9536 269° West 138 159 5,500 420 Climbing FAA TRACON SMA TRACON (SMA)
00:24 42.2258 -83.9694 267° West 137 158 5,600 420 Climbing FAA TRACON SMA TRACON (SMA)
00:24 42.2247 -83.9889 266° West 136 157 5,800 420 Climbing FAA TRACON SMA TRACON (SMA)
00:24 42.2236 -84.0050 265° West 138 159 5,900 300 Climbing FAA TRACON SMA TRACON (SMA)
00:25 42.2225 -84.0211 265° West 140 161 6,000  Climbing FAA TRACON SMA TRACON (SMA)
00:25 42.2208 -84.0417 264° West 142 163 5,900 -180 Descending FAA TRACON SMA TRACON (SMA)
00:25 42.2194 -84.0600 264° West 152 175 5,900  Level FAA TRACON SMA TRACON (SMA)
00:26 42.2183 -84.0781 265° West 154 177 5,900  Level FAA TRACON SMA TRACON (SMA)
00:26 42.2169 -84.0961 264° West 156 180 5,900  Level FAA TRACON SMA TRACON (SMA)
00:26 42.2150 -84.1186 263° West 157 181 5,900  Level FAA TRACON SMA TRACON (SMA)
00:27 42.2133 -84.1364 263° West 156 180 5,900  Level FAA TRACON SMA TRACON (SMA)
00:27 42.2119 -84.1586 265° West 155 178 5,900  Level FAA TRACON SMA TRACON (SMA)
00:27 42.2111 -84.1758 266° West 152 175 5,900  Level FAA TRACON SMA TRACON (SMA)
00:28 42.2108 -84.1931 269° West 151 174 5,900  Level FAA TRACON SMA TRACON (SMA)
00:28 42.2103 -84.2147 268° West 151 174 5,900  Level FAA TRACON SMA TRACON (SMA)
00:28 42.2097 -84.2319 268° West 150 173 5,900  Level FAA TRACON SMA TRACON (SMA)
00:29 42.2103 -84.2492 272° West 150 173 5,900  Level FAA TRACON SMA TRACON (SMA)
00:29 42.2097 -84.2711 268° West 151 174 5,900  Level FAA TRACON SMA TRACON (SMA)
00:29 42.2061 -84.2883 254° West 151 174 5,900  Level FAA TRACON SMA TRACON (SMA)
00:30 42.2047 -84.3058 264° West 152 175 5,900  Level FAA TRACON SMA TRACON (SMA)
00:30 42.2039 -84.3275 267° West 151 174 5,900  Level FAA TRACON SMA TRACON (SMA)
00:30 42.2028 -84.3447 265° West 151 174 5,900  Level FAA TRACON SMA TRACON (SMA)
00:31 42.2017 -84.3622 265° West 151 174 5,900  Level FAA TRACON SMA TRACON (SMA)
00:31 42.2000 -84.3842 264° West 151 174 5,900  Level FAA TRACON SMA TRACON (SMA)
00:31 42.1992 -84.4014 266° West 151 174 5,900  Level FAA TRACON SMA TRACON (SMA)
00:32 42.1981 -84.4189 265° West 151 174 5,900  Level FAA TRACON SMA TRACON (SMA)
00:32 42.1964 -84.4408 264° West 152 175 5,900  Level FAA TRACON SMA TRACON (SMA)
00:32 42.1953 -84.4581 265° West 152 175 5,900  Level FAA TRACON SMA TRACON (SMA)
00:33 42.1944 -84.4756 266° West 151 174 5,900  Level FAA TRACON SMA TRACON (SMA)
00:33 42.1933 -84.4972 266° West 151 174 5,900  Level FAA TRACON SMA TRACON (SMA)
00:33 42.1922 -84.5147 265° West 151 174 5,900  Level FAA TRACON SMA TRACON (SMA)
00:34 42.1908 -84.5317 264° West 150 173 5,900  Level FAA TRACON SMA TRACON (SMA)
00:34 42.1900 -84.5447 265° West 151 174 5,900  Level FAA TRACON SMA TRACON (SMA)
00:36 42.1847 -84.6497 266° West 150 173 6,000  Climbing Chicago Center
00:37 42.1800 -84.7064 264° West 152 175 6,000  Level Chicago Center
00:38 42.1772 -84.7636 266° West 153 176 6,000  Level Chicago Center
00:39 42.1733 -84.8214 265° West 155 178 6,000  Level Chicago Center
00:40 42.1692 -84.8778 264° West 153 176 6,000  Level Chicago Center
00:41 42.1661 -84.9353 266° West 155 178 6,000  Level Chicago Center
00:42 42.1622 -84.9947 265° West 158 182 6,000  Level Chicago Center
00:43 42.1592 -85.0525 266° West 157 181 6,000  Level Chicago Center
00:44 42.1547 -85.1114 264° West 158 182 6,000  Level Chicago Center
00:45 42.1511 -85.1678 265° West 155 178 6,000  Level Chicago Center
00:46 42.1469 -85.2267 265° West 157 181 6,000  Level Chicago Center
00:47 42.1433 -85.2867 265° West 160 184 6,000  Level Chicago Center
00:48 42.1392 -85.3558 265° West 157 181 6,000  Level Chicago Center
00:49 42.1344 -85.4142 264° West 157 181 6,000  Level Chicago Center
00:50 42.1308 -85.4722 265° West 157 181 6,000  Level Chicago Center
00:51 42.1261 -85.5314 264° West 158 182 6,000  Level Chicago Center
00:52 42.1225 -85.5897 265° West 158 182 6,000  Level Chicago Center
00:53 42.1189 -85.6481 265° West 157 181 6,000  Level Chicago Center
00:54 42.1144 -85.7058 264° West 156 180 6,000  Level Chicago Center
00:55 42.1100 -85.7653 264° West 159 183 6,000  Level Chicago Center
00:56 42.1058 -85.8244 265° West 159 183 6,000  Level Chicago Center
00:57 42.1017 -85.8842 265° West 160 184 6,000  Level Chicago Center
00:58 42.0978 -85.9428 265° West 160 184 6,000  Level Chicago Center
00:59 42.0928 -86.0025 264° West 159 183 6,000  Level Chicago Center
01:00 42.0886 -86.0622 265° West 160 184 6,000  Level Chicago Center
01:01 42.0842 -86.1211 264° West 160 184 6,000  Level Chicago Center
01:02 42.0797 -86.1808 264° West 161 185 6,000  Level Chicago Center
01:03 42.0750 -86.2414 264° West 162 186 6,000  Level Chicago Center
01:04 42.0711 -86.3022 265° West 163 188 6,000  Level Chicago Center
01:05 42.0656 -86.3631 263° West 164 189 6,000  Level Chicago Center
01:06 42.0617 -86.4239 265° West 164 189 6,000  Level Chicago Center
01:07 42.0572 -86.4839 264° West 163 188 6,000  Level Chicago Center
01:08 42.0522 -86.5456 264° West 166 191 6,000  Level Chicago Center
01:09 42.0472 -86.6067 264° West 165 190 6,000  Level Chicago Center
01:10 42.0419 -86.6689 264° West 168 193 6,000  Level Chicago Center
01:11 42.0372 -86.7411 265° West 166 191 6,000  Level Chicago Center
01:12 42.0328 -86.8033 265° West 167 192 6,000  Level Chicago Center
01:13 42.0283 -86.8656 265° West 168 193 6,000  Level Chicago Center
01:14 42.0222 -86.9275 262° West 168 193 6,000  Level Chicago Center
01:15 42.0175 -86.9881 264° West 165 190 6,000  Level Chicago Center
01:16 42.0108 -87.0642 263° West 170 196 6,000  Level Chicago Center
01:17 42.0053 -87.1275 263° West 170 196 6,000  Level Chicago Center
01:18 42.0014 -87.1911 265° West 171 197 6,000  Level Chicago Center
01:19 41.9947 -87.2536 262° West 169 194 6,000  Level Chicago Center
01:20 41.9764 -87.3122 247° West 171 197 6,000  Level Chicago Center
01:21 41.9583 -87.3703 247° West 169 194 6,000  Level Chicago Center
01:21 41.9500 -87.4000 249° West 173 199 6,000  Level Chicago TRACON
01:22 41.9333 -87.4500 246° West 173 199 6,000  Level Chicago TRACON
01:23 41.9167 -87.5167 251° West 174 200 6,000  Level Chicago TRACON
01:24 41.9000 -87.5833 251° West 173 199 6,000  Level Chicago TRACON
01:25 41.8833 -87.6333 246° West 174 200 6,000  Level Chicago TRACON
01:26 41.8667 -87.6833 246° West 168 193 6,000  Level Chicago TRACON
01:27 41.8667 -87.7500 270° West 170 196 6,000  Level Chicago TRACON
01:28 41.8500 -87.8000 246° West 169 194 6,000  Level Chicago TRACON
01:29 41.8333 -87.8667 251° West 167 192 6,000 -60 Level Chicago TRACON
01:30 41.8183 -87.9047 242° Southwest 164 189 5,900 -660 Descending Chicago Center
01:31 41.8317 -87.9703 285° West 180 207 4,900 -1,200 Descending Chicago Center
01:32 41.8475 -88.0403 287° West 191 220 3,600 -1,080 Descending Chicago Center
01:33 41.8617 -88.1122 285° West 197 227 2,800 -660 Descending Chicago Center
01:34 41.8717 -88.1811 281° West 195 224 2,300 -600 Descending Chicago Center
01:35 41.8706 -88.2400 269° West 174 200 1,700 -660 Descending Chicago Center
01:36 41.9031 -88.2614 334° Northwest 150 173 1,000 -720 Descending Chicago Center
01:38 41.9071 -88.2480 68° East  Level Estimated